Time;durP1;ratioP1;P1;durP2;ratioP2;P2;SDS_P1;SDS_P2;PMS_P1;PMS_P2;Temp;Humidity;BMP_temperature;BMP_pressure;BME280_temperature;BME280_humidity;BME280_pressure;Samples;Min_cycle;Max_cycle;Signal;HPM_P1;HPM_P2
2022/05/22 00:02:09;;;;;;;16.80;4.18;;;11.60;99.90;;;;;;5034240;28;20060;-74
2022/05/22 00:04:37;;;;;;;15.45;3.83;;;11.60;99.90;;;;;;5033014;28;20331;-75
2022/05/22 00:07:06;;;;;;;18.73;3.90;;;11.50;99.90;;;;;;5034857;28;20064;-75
2022/05/22 00:09:37;;;;;;;18.40;3.85;;;11.40;99.90;;;;;;5035123;28;20076;-76
2022/05/22 00:12:07;;;;;;;15.57;4.13;;;11.40;99.90;;;;;;5033826;28;20056;-76
2022/05/22 00:14:35;;;;;;;17.45;3.83;;;11.40;99.90;;;;;;5034053;28;20487;-75
2022/05/22 00:17:06;;;;;;;17.70;3.90;;;11.30;99.90;;;;;;5034789;28;20453;-75
2022/05/22 00:19:38;;;;;;;17.13;4.00;;;11.30;99.90;;;;;;5032792;28;20483;-76
2022/05/22 00:22:07;;;;;;;21.55;4.00;;;11.30;99.90;;;;;;5034945;28;20364;-75
2022/05/22 00:24:37;;;;;;;19.95;4.18;;;11.30;99.90;;;;;;5032774;28;20244;-75
2022/05/22 00:27:06;;;;;;;13.32;4.03;;;11.30;99.90;;;;;;5034629;28;20056;-75
2022/05/22 00:29:37;;;;;;;14.30;3.72;;;11.20;99.90;;;;;;5021787;28;20076;-75
2022/05/22 00:32:13;;;;;;;16.20;3.53;;;11.20;99.90;;;;;;4997581;28;20061;-77
2022/05/22 00:34:41;;;;;;;15.23;3.95;;;11.50;99.90;;;;;;5014746;28;20042;-74
2022/05/22 00:37:12;;;;;;;16.83;3.90;;;11.10;99.90;;;;;;5014181;28;20369;-75
2022/05/22 00:39:39;;;;;;;21.65;4.00;;;11.10;99.90;;;;;;4996539;28;20046;-75
2022/05/22 00:42:19;;;;;;;23.38;4.38;;;11.10;99.90;;;;;;5015438;28;20046;-76
2022/05/22 00:44:48;;;;;;;22.38;4.22;;;11.00;99.90;;;;;;4996788;28;20058;-76
2022/05/22 00:47:16;;;;;;;19.00;4.50;;;11.10;99.90;;;;;;4997942;28;20078;-76
2022/05/22 00:49:45;;;;;;;17.92;4.40;;;11.00;99.90;;;;;;4981172;28;20050;-76
2022/05/22 00:52:32;;;;;;;18.92;4.25;;;11.00;99.90;;;;;;4996728;28;20057;-75
2022/05/22 00:55:24;;;;;;;21.57;4.13;;;10.90;99.90;;;;;;5014956;28;20046;-76
2022/05/22 00:58:02;;;;;;;17.77;4.13;;;10.90;99.90;;;;;;5013828;28;20264;-75
2022/05/22 01:00:35;;;;;;;20.45;4.40;;;10.90;99.90;;;;;;4997864;28;20057;-74
2022/05/22 01:06:12;;;;;;;14.68;4.07;;;10.80;99.90;;;;;;4996324;28;20350;-76
2022/05/22 01:08:42;;;;;;;12.05;3.80;;;10.80;99.90;;;;;;4997561;28;20061;-75
2022/05/22 01:11:21;;;;;;;18.60;4.18;;;10.70;99.90;;;;;;4998140;28;20388;-76
2022/05/22 01:13:56;;;;;;;20.15;4.50;;;10.70;99.90;;;;;;5018279;28;20477;-76
2022/05/22 01:16:25;;;;;;;21.13;4.50;;;10.60;99.90;;;;;;5001303;28;20046;-76
2022/05/22 01:18:54;;;;;;;17.17;4.43;;;10.60;99.90;;;;;;5000142;28;20073;-76
2022/05/22 01:21:35;;;;;;;16.92;4.05;;;10.60;99.90;;;;;;5001462;28;20049;-75
2022/05/22 01:24:04;;;;;;;15.75;4.40;;;10.50;99.90;;;;;;5001443;28;20060;-75
2022/05/22 01:26:34;;;;;;;20.40;4.40;;;10.50;99.90;;;;;;4999796;28;20054;-74
2022/05/22 01:29:27;;;;;;;16.83;4.40;;;10.50;99.90;;;;;;5014918;28;20064;-75
2022/05/22 01:31:55;;;;;;;18.35;4.30;;;10.40;99.90;;;;;;5036173;28;20046;-74
2022/05/22 01:34:22;;;;;;;11.13;4.15;;;10.40;99.90;;;;;;5036960;28;20049;-76
2022/05/22 01:36:50;;;;;;;14.93;3.78;;;10.40;99.90;;;;;;5036836;28;20048;-75
2022/05/22 01:39:18;;;;;;;25.45;5.00;;;10.40;99.90;;;;;;5036514;28;20045;-74
2022/05/22 01:41:50;;;;;;;20.05;4.10;;;10.40;99.90;;;;;;5036653;28;20052;-75
2022/05/22 01:44:19;;;;;;;16.08;4.30;;;10.30;99.90;;;;;;5035661;28;20052;-74
2022/05/22 01:46:47;;;;;;;14.20;4.30;;;10.70;99.90;;;;;;5036728;28;20056;-74
2022/05/22 01:49:16;;;;;;;18.35;4.22;;;10.30;99.90;;;;;;5037563;28;20049;-74
2022/05/22 01:51:44;;;;;;;17.23;4.60;;;10.30;99.90;;;;;;5035573;28;20468;-75
2022/05/22 01:54:13;;;;;;;17.67;4.10;;;10.30;99.90;;;;;;5036359;28;20046;-74
2022/05/22 01:56:42;;;;;;;13.43;3.83;;;10.20;99.90;;;;;;5036782;28;20050;-74
2022/05/22 01:59:12;;;;;;;12.25;3.65;;;10.20;99.90;;;;;;5035840;28;20045;-74
2022/05/22 02:01:53;;;;;;;16.23;3.92;;;10.30;99.90;;;;;;5036828;28;20050;-76
2022/05/22 02:04:21;;;;;;;15.20;3.85;;;10.20;99.90;;;;;;5035371;28;20465;-76
2022/05/22 02:09:37;;;;;;;17.33;3.72;;;10.30;99.90;;;;;;5036625;28;19921;-74
2022/05/22 02:12:05;;;;;;;;;;;10.20;99.90;;;;;;5036794;28;20390;-75
2022/05/22 02:14:34;;;;;;;17.10;3.70;;;10.20;99.90;;;;;;5036094;28;19928;-74
2022/05/22 02:17:11;;;;;;;19.65;4.53;;;10.20;99.90;;;;;;5004813;28;20121;-75
2022/05/22 02:19:49;;;;;;;19.58;4.32;;;10.10;99.90;;;;;;5034940;28;20042;-74
2022/05/22 02:22:31;;;;;;;19.60;4.13;;;10.10;99.90;;;;;;5035757;28;20368;-74
2022/05/22 02:25:00;;;;;;;;;;;10.00;99.90;;;;;;5035377;28;20049;-76
2022/05/22 02:27:27;;;;;;;17.10;3.80;;;10.00;99.90;;;;;;5036001;28;20276;-76
2022/05/22 02:29:59;;;;;;;16.27;4.20;;;10.00;99.90;;;;;;5035587;28;20473;-74
2022/05/22 02:32:27;;;;;;;19.50;4.75;;;9.90;99.90;;;;;;5034763;28;20115;-76
2022/05/22 02:34:54;;;;;;;;;;;9.90;99.90;;;;;;5036948;28;20053;-75
2022/05/22 02:37:22;;;;;;;19.48;4.10;;;9.90;99.90;;;;;;5019605;28;19928;-76
2022/05/22 02:39:50;;;;;;;17.80;4.15;;;9.90;99.90;;;;;;5034522;28;20049;-76
2022/05/22 02:42:48;;;;;;;18.17;3.90;;;9.90;99.90;;;;;;5035615;28;20042;-74
2022/05/22 02:45:24;;;;;;;19.75;3.95;;;9.90;99.90;;;;;;5034774;28;20384;-75
2022/05/22 02:47:54;;;;;;;18.40;4.10;;;9.90;99.90;;;;;;5035856;28;20041;-74
2022/05/22 02:50:24;;;;;;;13.70;3.78;;;9.90;99.90;;;;;;5036275;28;20045;-74
2022/05/22 02:52:55;;;;;;;15.90;3.88;;;9.90;99.90;;;;;;5034402;28;20483;-75
2022/05/22 02:55:26;;;;;;;12.43;3.70;;;9.90;99.90;;;;;;5035317;28;20368;-74
2022/05/22 02:57:54;;;;;;;17.73;3.88;;;10.00;99.90;;;;;;5034526;28;20041;-75
2022/05/22 03:00:27;;;;;;;18.27;4.15;;;10.00;99.90;;;;;;5036439;28;20365;-74
2022/05/22 03:02:58;;;;;;;18.30;4.00;;;9.90;99.90;;;;;;5036866;28;20392;-74
2022/05/22 03:06:37;;;;;;;17.95;4.53;;;9.90;99.90;;;;;;5034244;28;20048;-76
2022/05/22 03:08:17;;;;;;;17.23;4.53;;;9.90;99.90;;;;;;5035086;28;20452;-75
2022/05/22 03:10:45;;;;;;;18.63;4.28;;;9.90;99.90;;;;;;5035095;28;20113;-74
2022/05/22 03:13:13;;;;;;;13.30;3.78;;;9.90;99.90;;;;;;5034571;28;20045;-76
2022/05/22 03:15:41;;;;;;;18.77;4.20;;;9.90;99.90;;;;;;5035032;28;20478;-74
2022/05/22 03:18:09;;;;;;;14.68;4.18;;;9.80;99.90;;;;;;5033801;28;20404;-74
2022/05/22 03:20:37;;;;;;;18.02;4.35;;;9.80;99.90;;;;;;5035258;28;20060;-75
2022/05/22 03:23:05;;;;;;;18.20;3.92;;;9.80;99.90;;;;;;5034847;28;20479;-75
2022/05/22 03:25:33;;;;;;;22.65;4.22;;;9.80;99.90;;;;;;5033876;28;20042;-76
2022/05/22 03:28:00;;;;;;;22.00;4.30;;;9.80;99.90;;;;;;5018251;28;20384;-74
2022/05/22 03:30:35;;;;;;;17.85;4.18;;;9.80;99.90;;;;;;5035333;28;20037;-76
2022/05/22 03:33:11;;;;;;;18.00;4.05;;;9.80;99.90;;;;;;5016680;28;20476;-77
2022/05/22 03:35:44;;;;;;;18.20;4.32;;;9.80;99.90;;;;;;5034617;28;20057;-75
2022/05/22 03:38:12;;;;;;;21.40;5.20;;;9.70;99.90;;;;;;5033633;28;20046;-74
2022/05/22 03:40:47;;;;;;;15.13;4.13;;;9.70;99.90;;;;;;5035564;28;20054;-76
2022/05/22 03:43:15;;;;;;;15.77;4.30;;;9.70;99.90;;;;;;5035089;28;20046;-76
2022/05/22 03:45:44;;;;;;;18.00;4.65;;;9.60;99.90;;;;;;5033306;28;20045;-76
2022/05/22 03:48:12;;;;;;;16.70;4.28;;;9.60;99.90;;;;;;5034517;28;20057;-74
2022/05/22 03:50:42;;;;;;;16.55;4.53;;;9.60;99.90;;;;;;5034402;28;20049;-74
2022/05/22 03:53:09;;;;;;;20.10;4.40;;;9.60;99.90;;;;;;5034247;28;20052;-75
2022/05/22 03:55:43;;;;;;;14.55;4.25;;;9.50;99.90;;;;;;5034760;28;20452;-75
2022/05/22 03:58:11;;;;;;;14.25;4.30;;;9.50;99.90;;;;;;5032936;28;20052;-77
2022/05/22 04:00:41;;;;;;;15.18;4.35;;;9.50;99.90;;;;;;5034562;28;20050;-74
2022/05/22 04:03:09;;;;;;;17.20;4.13;;;9.50;99.90;;;;;;5034275;28;20046;-76
2022/05/22 04:05:38;;;;;;;16.92;4.00;;;9.50;99.90;;;;;;5016521;28;20052;-74
2022/05/22 04:08:07;;;;;;;18.02;4.45;;;9.50;99.90;;;;;;5034652;28;20041;-76
2022/05/22 04:10:50;;;;;;;14.65;4.03;;;9.50;99.90;;;;;;5034127;28;20373;-76
2022/05/22 04:13:18;;;;;;;14.25;3.78;;;9.50;99.90;;;;;;5033067;28;20495;-76
2022/05/22 04:15:52;;;;;;;14.43;4.10;;;9.50;99.90;;;;;;5034104;28;20041;-75
2022/05/22 04:18:20;;;;;;;21.58;4.63;;;9.50;99.90;;;;;;5033626;28;20460;-74
2022/05/22 04:20:48;;;;;;;20.55;4.80;;;9.50;99.90;;;;;;5034550;28;20041;-76
2022/05/22 04:26:30;;;;;;;10.90;3.70;;;9.60;99.90;;;;;;5032727;28;20376;-75
2022/05/22 04:29:00;;;;;;;;;;;9.60;99.90;;;;;;5034228;28;20365;-74
2022/05/22 04:31:29;;;;;;;15.73;3.95;;;9.60;99.90;;;;;;5032859;28;19943;-76
2022/05/22 04:34:09;;;;;;;17.23;4.13;;;9.60;99.90;;;;;;5033899;28;20045;-74
2022/05/22 04:36:38;;;;;;;17.17;4.20;;;9.60;99.90;;;;;;5033876;28;20042;-76
2022/05/22 04:39:07;;;;;;;19.92;4.00;;;9.60;99.90;;;;;;5032503;28;20046;-75
2022/05/22 04:41:34;;;;;;;13.95;3.50;;;9.70;99.90;;;;;;5033799;28;20050;-73
2022/05/22 04:44:02;;;;;;;22.08;4.13;;;9.70;99.90;;;;;;5033634;28;20041;-76
2022/05/22 04:46:30;;;;;;;;;;;9.70;99.90;;;;;;5036835;28;20056;-75
2022/05/22 04:48:58;;;;;;;16.65;4.13;;;9.70;99.90;;;;;;5021811;28;19921;-75
2022/05/22 04:51:26;;;;;;;14.98;3.70;;;9.70;99.90;;;;;;5036808;28;20384;-74
2022/05/22 04:53:56;;;;;;;18.63;4.07;;;9.70;99.90;;;;;;5022454;28;20364;-76
2022/05/22 04:56:31;;;;;;;14.43;4.03;;;9.80;99.90;;;;;;5037477;28;20369;-74
2022/05/22 04:59:05;;;;;;;17.70;3.90;;;9.80;99.90;;;;;;5036655;28;20372;-76
2022/05/22 05:01:34;;;;;;;16.27;3.90;;;9.90;99.90;;;;;;5037700;28;20456;-74
2022/05/22 05:04:14;;;;;;;13.90;3.33;;;9.90;99.90;;;;;;5022096;28;20052;-75
2022/05/22 05:07:07;;;;;;;13.73;4.05;;;9.90;99.90;;;;;;5037850;28;20065;-74
2022/05/22 05:09:40;;;;;;;20.05;4.05;;;9.90;99.90;;;;;;5038196;28;20376;-76
2022/05/22 05:12:18;;;;;;;16.67;3.50;;;10.00;99.90;;;;;;5019845;28;20057;-75
2022/05/22 05:14:46;;;;;;;17.60;4.25;;;10.00;99.90;;;;;;5037261;28;20380;-74
2022/05/22 05:17:16;;;;;;;17.27;4.15;;;10.00;99.90;;;;;;5037184;28;20041;-75
2022/05/22 05:19:45;;;;;;;13.55;3.90;;;10.00;99.90;;;;;;5036151;28;20092;-75
2022/05/22 05:22:13;;;;;;;21.15;4.15;;;10.10;99.90;;;;;;5020928;28;20045;-75
2022/05/22 05:24:41;;;;;;;15.43;4.38;;;10.10;99.90;;;;;;5036147;28;20052;-74
2022/05/22 05:27:12;;;;;;;14.20;3.65;;;10.10;99.90;;;;;;5021197;28;20064;-76
2022/05/22 05:30:10;;;;;;;17.52;4.13;;;10.20;99.90;;;;;;5024714;28;20057;-77
2022/05/22 05:32:43;;;;;;;12.85;3.67;;;10.10;99.90;;;;;;5020409;28;20364;-76
2022/05/22 05:35:31;;;;;;;11.35;3.75;;;10.10;99.90;;;;;;5037659;28;20368;-76
2022/05/22 05:38:02;;;;;;;11.82;3.75;;;10.10;99.90;;;;;;5036214;28;20379;-73
2022/05/22 05:40:30;;;;;;;14.55;3.88;;;10.20;99.90;;;;;;5036951;28;20041;-75
2022/05/22 05:42:59;;;;;;;12.77;3.67;;;10.10;99.90;;;;;;5037599;28;20053;-75
2022/05/22 05:45:27;;;;;;;14.60;4.07;;;10.20;99.90;;;;;;5019274;28;20045;-76
2022/05/22 05:47:59;;;;;;;16.02;3.72;;;10.20;99.90;;;;;;5036589;28;20053;-76
2022/05/22 05:50:47;;;;;;;15.93;4.30;;;10.20;99.90;;;;;;5036824;28;20049;-75
2022/05/22 05:53:29;;;;;;;11.95;3.90;;;10.30;99.90;;;;;;5036733;28;20499;-74
2022/05/22 05:56:10;;;;;;;17.05;4.55;;;10.30;99.90;;;;;;5036564;28;20491;-76
2022/05/22 05:59:33;;;;;;;14.75;3.72;;;10.40;99.90;;;;;;4995045;28;20042;-76
2022/05/22 06:02:13;;;;;;;14.77;4.07;;;10.50;99.90;;;;;;4980214;28;20053;-76
2022/05/22 06:04:41;;;;;;;14.50;4.10;;;10.60;99.90;;;;;;5010448;28;20053;-75
2022/05/22 06:07:11;;;;;;;13.55;4.03;;;10.60;99.90;;;;;;5037647;28;20057;-76
2022/05/22 06:09:40;;;;;;;13.13;4.13;;;10.70;99.90;;;;;;5036340;28;20060;-77
2022/05/22 06:12:23;;;;;;;14.55;3.85;;;10.80;99.90;;;;;;5036185;28;20053;-74
2022/05/22 06:14:58;;;;;;;15.45;4.30;;;10.90;99.90;;;;;;5036360;28;20069;-76
2022/05/22 06:17:46;;;;;;;15.60;3.85;;;11.00;99.90;;;;;;5036025;28;20376;-74
2022/05/22 06:20:20;;;;;;;20.40;4.50;;;11.10;99.90;;;;;;5019964;28;20137;-74
2022/05/22 06:22:48;;;;;;;16.25;4.03;;;11.20;99.90;;;;;;5019387;28;20056;-74
2022/05/22 06:25:35;;;;;;;17.27;4.10;;;11.30;99.90;;;;;;5035730;28;20045;-74
2022/05/22 06:28:35;;;;;;;19.75;4.03;;;11.30;99.90;;;;;;4999703;28;20042;-75
2022/05/22 06:31:17;;;;;;;16.58;3.65;;;11.40;99.90;;;;;;4998878;28;20403;-74
2022/05/22 06:34:05;;;;;;;13.63;4.00;;;11.40;99.90;;;;;;4999873;28;20061;-76
2022/05/22 06:36:51;;;;;;;17.45;4.13;;;11.50;99.90;;;;;;4986371;28;20398;-75
2022/05/22 06:39:50;;;;;;;18.52;5.22;;;11.50;99.90;;;;;;4998566;28;20389;-75
2022/05/22 06:42:39;;;;;;;17.10;3.80;;;11.60;99.90;;;;;;4985901;28;20508;-75
2022/05/22 06:45:28;;;;;;;22.15;4.32;;;11.60;99.90;;;;;;4988368;28;20067;-75
2022/05/22 06:48:05;;;;;;;19.92;4.68;;;11.70;99.90;;;;;;4999559;28;20060;-76
2022/05/22 06:50:53;;;;;;;15.60;4.20;;;11.80;99.90;;;;;;5016876;28;20054;-75
2022/05/22 06:53:56;;;;;;;16.95;4.00;;;11.90;99.90;;;;;;4937299;29;20059;-75
2022/05/22 06:56:44;;;;;;;14.70;3.35;;;12.10;99.90;;;;;;4995139;28;20073;-75
2022/05/22 06:59:28;;;;;;;14.52;4.00;;;12.20;99.90;;;;;;4982275;28;20061;-76
2022/05/22 07:02:15;;;;;;;13.30;3.70;;;12.40;99.90;;;;;;5016478;28;20381;-75
2022/05/22 07:05:02;;;;;;;11.57;3.45;;;12.70;99.90;;;;;;5015608;28;20046;-76
2022/05/22 07:07:56;;;;;;;13.88;2.80;;;12.90;99.90;;;;;;4992730;28;20492;-75
2022/05/22 07:13:45;;;;;;;12.43;2.53;;;13.50;99.90;;;;;;4999454;28;20049;-79
2022/05/22 07:16:41;;;;;;;12.45;2.80;;;13.60;99.90;;;;;;4986135;28;20484;-75
2022/05/22 07:19:17;;;;;;;10.60;2.88;;;13.70;99.90;;;;;;4997748;28;20045;-74
2022/05/22 07:21:59;;;;;;;11.70;2.70;;;13.80;99.90;;;;;;4998990;28;20042;-77
2022/05/22 07:24:36;;;;;;;12.48;2.60;;;13.90;99.90;;;;;;4982029;28;20042;-75
2022/05/22 07:27:24;;;;;;;12.77;2.25;;;14.00;99.90;;;;;;5002068;28;20062;-76
2022/05/22 07:30:13;;;;;;;16.23;2.45;;;14.20;99.90;;;;;;5017594;28;20406;-75
2022/05/22 07:33:10;;;;;;;11.40;2.33;;;14.40;99.90;;;;;;4998053;28;20046;-75
2022/05/22 07:35:58;;;;;;;15.13;2.60;;;14.50;99.90;;;;;;4999398;28;20053;-74
2022/05/22 07:38:45;;;;;;;11.50;2.40;;;14.60;99.90;;;;;;5014737;28;20041;-76
2022/05/22 07:41:45;;;;;;;14.05;2.63;;;14.60;99.90;;;;;;4988509;28;20041;-75
2022/05/22 07:44:31;;;;;;;11.38;2.30;;;14.60;99.90;;;;;;4981895;28;20065;-74
2022/05/22 07:47:09;;;;;;;11.07;2.22;;;14.70;99.90;;;;;;4998419;28;20038;-74
2022/05/22 07:53:10;;;;;;;10.10;2.30;;;14.80;99.90;;;;;;5003341;28;20449;-75
2022/05/22 07:55:39;;;;;;;11.57;2.15;;;14.80;99.90;;;;;;5015228;28;20037;-76
2022/05/22 07:58:17;;;;;;;8.60;1.85;;;14.80;99.90;;;;;;5014226;28;20042;-76
2022/05/22 08:00:52;;;;;;;15.57;2.30;;;14.80;99.90;;;;;;4981776;28;20377;-76
2022/05/22 08:03:38;;;;;;;10.90;2.45;;;14.90;99.90;;;;;;4998079;28;20050;-75
2022/05/22 08:06:07;;;;;;;9.18;1.73;;;14.90;99.90;;;;;;4996996;28;20057;-75
2022/05/22 08:08:38;;;;;;;14.95;2.60;;;15.00;99.90;;;;;;4997847;28;20061;-75
2022/05/22 08:11:20;;;;;;;10.43;2.40;;;15.10;99.90;;;;;;4996965;28;20054;-75
2022/05/22 08:13:58;;;;;;;9.05;2.20;;;15.10;99.90;;;;;;4997925;28;20476;-75
2022/05/22 08:16:34;;;;;;;11.88;2.28;;;15.20;99.90;;;;;;4997828;28;20045;-76
2022/05/22 08:19:22;;;;;;;16.88;2.72;;;15.30;99.90;;;;;;4996535;28;20376;-76
2022/05/22 08:22:13;;;;;;;14.60;2.67;;;15.50;99.90;;;;;;5014276;28;20054;-75
2022/05/22 08:25:02;;;;;;;13.02;2.33;;;15.70;99.90;;;;;;4996970;28;20042;-76
2022/05/22 08:27:31;;;;;;;14.70;2.47;;;15.90;99.90;;;;;;4998199;28;20049;-75
2022/05/22 08:30:01;;;;;;;10.50;2.10;;;16.00;99.90;;;;;;5014617;28;20120;-76
2022/05/22 08:32:39;;;;;;;13.45;2.45;;;16.00;99.90;;;;;;5013145;28;20061;-76
2022/05/22 08:35:09;;;;;;;15.02;2.40;;;16.10;99.90;;;;;;5014738;28;20042;-75
2022/05/22 08:37:37;;;;;;;11.57;2.38;;;16.10;99.90;;;;;;5014186;28;20113;-75
2022/05/22 08:40:06;;;;;;;16.73;2.72;;;16.10;99.90;;;;;;5014703;28;20495;-76
2022/05/22 08:42:49;;;;;;;10.50;2.30;;;16.10;99.90;;;;;;5014521;28;20042;-76
2022/05/22 08:45:19;;;;;;;10.88;2.40;;;16.20;99.90;;;;;;5014249;28;20464;-75
2022/05/22 08:48:05;;;;;;;8.93;2.10;;;16.30;99.90;;;;;;5015136;28;20373;-75
2022/05/22 08:50:36;;;;;;;10.32;2.40;;;16.30;99.90;;;;;;5015173;28;20057;-76
2022/05/22 08:53:09;;;;;;;12.82;2.30;;;16.50;99.90;;;;;;4997011;28;20046;-75
2022/05/22 09:01:30;;;;;;;11.10;2.38;;;16.90;99.90;;;;;;5014742;28;20463;-75
2022/05/22 09:04:16;;;;;;;16.23;2.60;;;17.00;99.90;;;;;;5015069;28;20042;-75
2022/05/22 09:07:13;;;;;;;15.43;2.60;;;17.10;99.90;;;;;;5014775;28;20091;-75
2022/05/22 09:09:42;;;;;;;10.63;2.50;;;17.20;99.90;;;;;;5013993;28;20361;-75
2022/05/22 09:12:45;;;;;;;9.15;2.33;;;17.30;99.90;;;;;;5013991;28;20046;-75
2022/05/22 09:15:27;;;;;;;10.07;2.22;;;17.30;99.90;;;;;;4997523;28;20073;-75
2022/05/22 09:18:13;;;;;;;12.75;2.80;;;17.30;99.90;;;;;;4996486;28;20068;-75
2022/05/22 09:21:05;;;;;;;11.30;2.38;;;17.30;99.90;;;;;;5014507;28;20049;-77
2022/05/22 09:23:56;;;;;;;15.43;2.80;;;17.30;99.90;;;;;;4997767;28;20061;-75
2022/05/22 09:26:41;;;;;;;12.05;2.67;;;17.30;99.90;;;;;;5013523;28;20053;-77
2022/05/22 09:29:33;;;;;;;8.32;2.42;;;17.40;99.90;;;;;;5014205;28;20501;-78
2022/05/22 09:32:09;;;;;;;12.52;2.40;;;17.50;99.90;;;;;;5014882;28;20072;-76
2022/05/22 09:35:05;;;;;;;11.43;2.67;;;17.50;99.90;;;;;;5001591;28;20050;-76
2022/05/22 09:38:10;;;;;;;11.48;2.33;;;17.60;99.90;;;;;;5018357;28;20056;-75
2022/05/22 09:40:47;;;;;;;14.35;3.03;;;17.70;99.90;;;;;;5018074;28;20048;-76
2022/05/22 09:43:38;;;;;;;12.63;2.72;;;17.70;99.90;;;;;;5018189;28;20372;-75
2022/05/22 09:46:18;;;;;;;11.80;2.60;;;17.90;99.90;;;;;;5016990;28;20465;-75
2022/05/22 09:49:01;;;;;;;11.20;2.47;;;17.90;99.90;;;;;;5001160;28;20054;-76
2022/05/22 09:52:02;;;;;;;15.23;2.40;;;17.90;99.90;;;;;;5017067;28;20073;-76
2022/05/22 09:55:02;;;;;;;10.98;2.60;;;18.00;99.90;;;;;;5018336;28;20054;-75
2022/05/22 09:57:51;;;;;;;12.95;2.45;;;18.10;99.90;;;;;;4998107;28;20065;-75
2022/05/22 10:00:24;;;;;;;15.90;3.10;;;18.10;99.90;;;;;;5000671;28;20046;-74
2022/05/22 10:03:18;;;;;;;9.07;2.85;;;18.20;99.90;;;;;;5018082;28;20058;-76
2022/05/22 10:06:07;;;;;;;13.40;2.67;;;18.20;99.90;;;;;;5016663;28;20468;-77
2022/05/22 10:08:56;;;;;;;9.90;2.47;;;18.20;99.80;;;;;;5001127;28;20060;-75
2022/05/22 10:11:54;;;;;;;13.18;2.38;;;18.30;99.00;;;;;;5017071;28;20061;-80
2022/05/22 10:15:03;;;;;;;10.45;2.50;;;18.30;99.40;;;;;;4987599;28;20050;-75
2022/05/22 10:17:35;;;;;;;11.57;2.50;;;18.30;99.90;;;;;;5000705;28;20045;-75
2022/05/22 10:24:43;;;;;;;13.60;2.50;;;18.40;99.40;;;;;;4978295;28;20058;-76
2022/05/22 10:27:22;;;;;;;11.98;2.63;;;18.50;98.80;;;;;;5000056;28;20045;-75
2022/05/22 10:30:09;;;;;;;11.00;2.90;;;18.60;99.30;;;;;;5021919;28;20468;-75
2022/05/22 10:32:43;;;;;;;12.23;2.83;;;18.60;99.80;;;;;;5035449;28;20045;-74
2022/05/22 10:35:26;;;;;;;10.68;2.60;;;18.70;99.90;;;;;;5036425;28;20049;-74
2022/05/22 10:38:09;;;;;;;14.35;2.80;;;18.70;99.40;;;;;;5036237;28;20055;-75
2022/05/22 10:43:36;;;;;;;11.23;2.92;;;18.80;98.90;;;;;;5036238;28;20052;-74
2022/05/22 10:46:04;;;;;;;13.07;2.60;;;18.90;99.00;;;;;;5035828;28;20044;-75
2022/05/22 10:48:35;;;;;;;11.45;2.88;;;18.90;98.90;;;;;;5036812;28;20056;-75
2022/05/22 10:51:12;;;;;;;10.45;2.50;;;19.00;99.00;;;;;;5035351;28;20049;-75
2022/05/22 10:53:41;;;;;;;8.45;2.35;;;19.10;98.00;;;;;;5036558;28;20049;-74
2022/05/22 10:56:14;;;;;;;8.82;2.50;;;19.10;98.50;;;;;;5036343;28;20045;-75
2022/05/22 10:58:56;;;;;;;12.82;2.22;;;19.20;97.90;;;;;;5048825;28;20048;-80
2022/05/22 11:01:39;;;;;;;8.50;2.15;;;19.30;97.20;;;;;;5047218;28;20040;-77
2022/05/22 11:04:07;;;;;;;13.60;2.95;;;19.30;97.10;;;;;;5042305;28;20037;-78
2022/05/22 11:06:37;;;;;;;10.95;2.90;;;19.30;98.10;;;;;;5055132;28;20049;-78
2022/05/22 11:09:07;;;;;;;9.35;2.40;;;19.40;98.30;;;;;;5056317;28;20460;-79
2022/05/22 11:11:37;;;;;;;14.60;3.13;;;19.40;98.00;;;;;;5054696;28;20072;-78
2022/05/22 11:14:15;;;;;;;17.45;3.42;;;19.40;97.80;;;;;;5039587;28;20483;-80
2022/05/22 11:16:44;;;;;;;10.23;2.72;;;19.50;97.70;;;;;;5046272;28;20060;-81
2022/05/22 11:19:15;;;;;;;9.25;2.70;;;19.50;97.90;;;;;;5054745;28;20124;-78
2022/05/22 11:22:21;;;;;;;10.75;2.80;;;19.50;97.20;;;;;;5056125;28;20463;-78
2022/05/22 11:24:55;;;;;;;10.43;2.75;;;19.70;97.00;;;;;;5054173;28;20044;-73
2022/05/22 11:27:41;;;;;;;11.32;2.40;;;19.70;97.00;;;;;;5055770;28;20052;-77
2022/05/22 11:30:18;;;;;;;14.77;3.00;;;19.90;97.00;;;;;;5030025;28;20060;-77
2022/05/22 11:33:20;;;;;;;12.27;2.97;;;19.90;96.30;;;;;;4997405;28;20065;-79
2022/05/22 11:36:09;;;;;;;13.20;2.70;;;20.00;96.70;;;;;;5015828;28;20380;-77
2022/05/22 11:39:17;;;;;;;11.05;2.20;;;20.00;95.70;;;;;;5016647;28;20056;-78
2022/05/22 11:41:52;;;;;;;9.73;2.20;;;20.00;95.40;;;;;;5012883;28;20507;-75
2022/05/22 11:44:42;;;;;;;9.60;1.85;;;20.20;95.80;;;;;;5032037;28;20053;-73
2022/05/22 11:47:51;;;;;;;10.73;2.38;;;20.30;96.00;;;;;;5016140;28;20381;-77
2022/05/22 11:50:48;;;;;;;12.13;2.17;;;20.40;95.20;;;;;;4977653;28;20488;-72
2022/05/22 11:53:34;;;;;;;10.00;2.40;;;20.60;94.60;;;;;;4997635;28;20053;-79
2022/05/22 11:56:33;;;;;;;9.65;2.17;;;20.70;94.80;;;;;;5001554;28;20060;-77
2022/05/22 11:59:25;;;;;;;8.63;2.30;;;20.70;94.70;;;;;;4998317;28;20551;-77
2022/05/22 12:02:07;;;;;;;11.55;2.63;;;20.80;95.00;;;;;;4998519;28;20056;-77
2022/05/22 12:05:20;;;;;;;10.50;2.90;;;20.90;95.50;;;;;;5017157;28;20491;-77
2022/05/22 12:08:04;;;;;;;9.07;3.10;;;20.90;94.70;;;;;;5030296;28;20041;-76
2022/05/22 12:10:46;;;;;;;7.95;2.22;;;20.90;93.80;;;;;;5034490;28;20064;-76
2022/05/22 12:13:27;;;;;;;12.82;2.25;;;21.00;95.10;;;;;;5034078;28;20060;-76
2022/05/22 12:16:15;;;;;;;11.15;2.50;;;21.10;94.10;;;;;;5001739;28;20072;-76
2022/05/22 12:18:56;;;;;;;8.43;1.98;;;21.20;93.90;;;;;;5034111;28;20057;-76
2022/05/22 12:21:57;;;;;;;8.18;2.20;;;21.20;93.80;;;;;;5034894;28;20052;-75
2022/05/22 12:24:33;;;;;;;13.43;2.63;;;21.30;93.50;;;;;;5033872;28;20057;-76
2022/05/22 12:27:06;;;;;;;8.70;2.40;;;21.40;94.10;;;;;;5034891;28;20041;-75
2022/05/22 12:29:47;;;;;;;14.38;4.72;;;21.50;94.30;;;;;;5035519;28;20471;-76
2022/05/22 12:32:23;;;;;;;11.32;2.67;;;21.50;93.50;;;;;;5016708;28;20068;-76
2022/05/22 12:34:54;;;;;;;12.23;2.20;;;21.60;94.90;;;;;;5017661;28;20053;-76
2022/05/22 12:37:39;;;;;;;8.05;2.00;;;21.70;93.90;;;;;;5035238;28;20056;-75
2022/05/22 12:40:34;;;;;;;9.93;2.33;;;21.80;93.40;;;;;;5034865;28;20052;-76
2022/05/22 12:43:05;;;;;;;9.82;2.20;;;21.80;92.40;;;;;;5031641;28;20053;-75
2022/05/22 12:45:34;;;;;;;10.18;2.20;;;21.80;92.70;;;;;;5030446;28;20052;-76
2022/05/22 12:48:11;;;;;;;12.02;2.15;;;21.80;92.10;;;;;;5034543;28;20041;-75
2022/05/22 12:50:49;;;;;;;9.63;2.00;;;21.80;92.40;;;;;;5034644;28;20046;-75
2022/05/22 12:53:27;;;;;;;8.82;2.40;;;21.90;91.50;;;;;;5033348;28;20053;-75
2022/05/22 12:55:55;;;;;;;8.68;2.13;;;21.90;92.00;;;;;;5034671;28;20049;-75
2022/05/22 12:58:37;;;;;;;9.30;2.28;;;21.90;92.60;;;;;;5033075;28;20053;-75
2022/05/22 13:01:23;;;;;;;9.27;2.30;;;21.90;91.10;;;;;;5016931;28;20376;-75
2022/05/22 13:03:54;;;;;;;9.60;2.30;;;22.10;91.40;;;;;;5034465;28;20046;-74
2022/05/22 13:06:30;;;;;;;9.68;2.60;;;22.30;92.90;;;;;;5034829;28;20052;-74
2022/05/22 13:09:03;;;;;;;8.05;2.20;;;22.50;91.90;;;;;;5038080;28;20037;-76
2022/05/22 13:11:50;;;;;;;11.95;2.70;;;22.60;91.80;;;;;;5036988;28;20056;-75
2022/05/22 13:14:47;;;;;;;11.05;2.25;;;22.60;90.60;;;;;;5037990;28;20053;-75
2022/05/22 13:17:29;;;;;;;8.07;2.20;;;22.90;91.80;;;;;;5004877;28;20045;-76
2022/05/22 13:20:02;;;;;;;8.38;2.30;;;23.00;91.60;;;;;;5036758;28;20488;-76
2022/05/22 13:22:39;;;;;;;10.50;2.33;;;23.10;91.90;;;;;;5038325;28;20053;-76
2022/05/22 13:25:26;;;;;;;10.13;2.30;;;23.30;91.70;;;;;;5036652;28;20388;-76
2022/05/22 13:27:57;;;;;;;10.93;2.42;;;24.10;92.20;;;;;;5037010;28;20057;-77
2022/05/22 13:30:29;;;;;;;12.52;2.72;;;25.60;91.60;;;;;;5050638;28;20056;-76
2022/05/22 13:33:02;;;;;;;7.63;2.25;;;27.00;90.00;;;;;;5055623;28;20379;-74
2022/05/22 13:35:36;;;;;;;9.40;2.40;;;28.30;87.30;;;;;;5057699;28;20060;-73
2022/05/22 13:38:12;;;;;;;8.02;2.28;;;29.50;84.60;;;;;;5056857;28;20345;-75
2022/05/22 13:41:18;;;;;;;10.75;2.38;;;30.60;81.00;;;;;;5057572;28;20060;-72
2022/05/22 13:43:57;;;;;;;6.55;2.20;;;30.70;78.60;;;;;;5017171;28;20060;-72
2022/05/22 13:46:34;;;;;;;8.25;2.05;;;30.90;75.80;;;;;;5056274;28;20041;-74
2022/05/22 13:49:34;;;;;;;9.43;2.47;;;30.30;76.00;;;;;;5057165;28;20045;-82
2022/05/22 13:54:57;;;;;;;9.82;2.60;;;30.00;77.80;;;;;;5048868;28;20064;-75
2022/05/22 13:57:30;;;;;;;11.00;2.38;;;29.70;77.90;;;;;;5055580;28;20049;-74
2022/05/22 14:00:07;;;;;;;8.20;1.90;;;29.20;76.80;;;;;;5040534;28;20056;-74
2022/05/22 14:03:02;;;;;;;8.40;2.33;;;29.10;77.60;;;;;;5050284;28;20463;-75
2022/05/22 14:05:39;;;;;;;10.00;2.17;;;29.20;78.50;;;;;;5055040;28;20048;-80
2022/05/22 14:08:16;;;;;;;10.05;2.25;;;29.20;76.60;;;;;;5056732;28;20041;-76